Kezdőlap
METAR-TAF:

METAR-TAF

Repülőterek :

Ortonville Municipal Airport (Martinson Field)

Ortonville, Minnesota, Amerikai Egyesült Államok

földrajzi szélesség: 45-18-20N, földrajzi hosszúság: 096-25-28W, magasság: 335 m

Jelenlegi meteorológiai megfigyelések

A jelentés 26 perccel ezelõtt készült, 06:55 UTC
Észak-északkeleti szél 4 kt
Hőmérséklet -11°C
Páratartalom 85%
Légköri nyomás 1022 hPa
Látótávolság: 16.1 km
Szórványos felhőzet 1600 lábon
Szakadozott felhőzet 11000 lábon

METAR: KVVV 270655Z AUTO 02004KT 10SM SCT016 BKN110 M11/M13 A3017 RMK AO2

Idő: 01:21 (07:21 UTC)


TAF: hiányzik

Meteorológiai megfigyelések és előrejelzések több, mint 4000 repülőtéren (METAR és TAF jelentéseket).

A térképen piros és sárga pontok jelzik az elérhető meteorológiai állomásokat.

Mozgassa az egeret a pont fölött, hogy megjelenjen az állomás neve.

Azután kattintson az időjárási megfigyelések és előrejelzések megtekintéséhez.

A térkép megváltoztatása: kattintson a fekete keresztel jelölt zöld gombra ráközelítéshez, a vonallal jelölt zöld gombra távolításhoz, vagy a zöld nyilakra a szomszédos térképek eléréséhez.


METAR-TAF: